sensor_id;sensor_type;location;lat;lon;timestamp;pressure;altitude;pressure_sealevel;temperature;humidity
74921;BME280;63483;47.384;8.860;2022-09-24T00:01:43;94383.97;;;11.97;52.51
74921;BME280;63483;47.384;8.860;2022-09-24T00:04:10;94387.38;;;11.98;52.75
74921;BME280;63483;47.384;8.860;2022-09-24T00:06:41;94382.31;;;11.96;52.78
74921;BME280;63483;47.384;8.860;2022-09-24T00:09:09;94383.34;;;11.95;52.59
74921;BME280;63483;47.384;8.860;2022-09-24T00:11:35;94380.09;;;11.93;52.85
74921;BME280;63483;47.384;8.860;2022-09-24T00:14:01;94382.72;;;11.93;52.79
74921;BME280;63483;47.384;8.860;2022-09-24T00:16:28;94376.66;;;11.92;52.89
74921;BME280;63483;47.384;8.860;2022-09-24T00:18:55;94382.13;;;11.91;53.09
74921;BME280;63483;47.384;8.860;2022-09-24T00:21:25;94378.84;;;11.89;53.08
74921;BME280;63483;47.384;8.860;2022-09-24T00:23:58;94379.25;;;11.86;52.87
74921;BME280;63483;47.384;8.860;2022-09-24T00:26:24;94374.34;;;11.83;53.02
74921;BME280;63483;47.384;8.860;2022-09-24T00:29:10;94374.56;;;11.81;53.06
74921;BME280;63483;47.384;8.860;2022-09-24T00:31:36;94378.38;;;11.78;53.13
74921;BME280;63483;47.384;8.860;2022-09-24T00:34:02;94364.66;;;11.76;52.95
74921;BME280;63483;47.384;8.860;2022-09-24T00:36:27;94354.16;;;11.76;53.13
74921;BME280;63483;47.384;8.860;2022-09-24T00:38:55;94351.53;;;11.76;53.46
74921;BME280;63483;47.384;8.860;2022-09-24T00:41:24;94352.53;;;11.75;53.31
74921;BME280;63483;47.384;8.860;2022-09-24T00:43:49;94345.25;;;11.71;53.36
74921;BME280;63483;47.384;8.860;2022-09-24T00:46:24;94341.22;;;11.75;53.46
74921;BME280;63483;47.384;8.860;2022-09-24T00:48:54;94335.59;;;11.78;53.32
74921;BME280;63483;47.384;8.860;2022-09-24T00:51:24;94338.00;;;11.79;53.45
74921;BME280;63483;47.384;8.860;2022-09-24T00:53:54;94333.41;;;11.82;53.45
74921;BME280;63483;47.384;8.860;2022-09-24T00:56:22;94331.13;;;11.78;53.49
74921;BME280;63483;47.384;8.860;2022-09-24T00:58:50;94331.97;;;11.79;53.53
74921;BME280;63483;47.384;8.860;2022-09-24T01:01:18;94329.16;;;11.81;53.61
74921;BME280;63483;47.384;8.860;2022-09-24T01:03:46;94325.53;;;11.82;53.42
74921;BME280;63483;47.384;8.860;2022-09-24T01:06:12;94331.38;;;11.84;53.48
74921;BME280;63483;47.384;8.860;2022-09-24T01:08:39;94341.06;;;11.83;53.57
74921;BME280;63483;47.384;8.860;2022-09-24T01:25:01;94352.13;;;11.78;54.10
74921;BME280;63483;47.384;8.860;2022-09-24T01:30:13;94356.56;;;11.78;54.01
74921;BME280;63483;47.384;8.860;2022-09-24T01:35:41;94354.41;;;11.82;55.05
74921;BME280;63483;47.384;8.860;2022-09-24T01:38:12;94353.97;;;11.78;54.71
74921;BME280;63483;47.384;8.860;2022-09-24T01:40:39;94352.13;;;11.78;54.60
74921;BME280;63483;47.384;8.860;2022-09-24T01:43:04;94348.50;;;11.79;54.70
74921;BME280;63483;47.384;8.860;2022-09-24T01:45:33;94354.56;;;11.80;54.77
74921;BME280;63483;47.384;8.860;2022-09-24T01:48:00;94348.94;;;11.83;54.99
74921;BME280;63483;47.384;8.860;2022-09-24T01:50:28;94353.00;;;11.86;54.83
74921;BME280;63483;47.384;8.860;2022-09-24T01:53:01;94346.75;;;11.87;54.56
74921;BME280;63483;47.384;8.860;2022-09-24T01:55:35;94344.25;;;11.78;55.21
74921;BME280;63483;47.384;8.860;2022-09-24T01:58:33;94345.69;;;11.81;55.08
74921;BME280;63483;47.384;8.860;2022-09-24T02:01:05;94349.69;;;11.70;55.58
74921;BME280;63483;47.384;8.860;2022-09-24T02:03:35;94344.38;;;11.57;55.95
74921;BME280;63483;47.384;8.860;2022-09-24T02:06:19;94343.59;;;11.63;55.89
74921;BME280;63483;47.384;8.860;2022-09-24T02:08:47;94343.81;;;11.68;55.27
74921;BME280;63483;47.384;8.860;2022-09-24T02:11:18;94337.81;;;11.74;55.82
74921;BME280;63483;47.384;8.860;2022-09-24T02:16:20;94335.00;;;11.83;55.50
74921;BME280;63483;47.384;8.860;2022-09-24T02:18:51;94329.38;;;11.86;55.24
74921;BME280;63483;47.384;8.860;2022-09-24T02:21:21;94325.38;;;11.90;55.06
74921;BME280;63483;47.384;8.860;2022-09-24T02:23:55;94315.47;;;11.92;55.20
74921;BME280;63483;47.384;8.860;2022-09-24T02:26:22;94306.00;;;11.91;55.12
74921;BME280;63483;47.384;8.860;2022-09-24T02:28:48;94308.00;;;11.89;55.13
74921;BME280;63483;47.384;8.860;2022-09-24T02:31:21;94301.75;;;11.90;55.11
74921;BME280;63483;47.384;8.860;2022-09-24T02:33:49;94290.47;;;11.89;55.13
74921;BME280;63483;47.384;8.860;2022-09-24T02:36:34;94296.50;;;11.90;54.80
74921;BME280;63483;47.384;8.860;2022-09-24T02:39:00;94295.50;;;11.91;55.29
74921;BME280;63483;47.384;8.860;2022-09-24T02:41:28;94290.47;;;11.89;55.34
74921;BME280;63483;47.384;8.860;2022-09-24T02:43:54;94288.84;;;11.88;55.07
74921;BME280;63483;47.384;8.860;2022-09-24T02:46:19;94286.00;;;11.90;55.13
74921;BME280;63483;47.384;8.860;2022-09-24T02:48:45;94286.00;;;11.90;55.38
74921;BME280;63483;47.384;8.860;2022-09-24T02:51:10;94282.41;;;11.91;55.18
74921;BME280;63483;47.384;8.860;2022-09-24T02:53:35;94276.13;;;11.92;55.01
74921;BME280;63483;47.384;8.860;2022-09-24T02:56:01;94271.91;;;11.91;55.19
74921;BME280;63483;47.384;8.860;2022-09-24T02:58:28;94277.94;;;11.91;55.08
74921;BME280;63483;47.384;8.860;2022-09-24T03:00:54;94276.50;;;11.89;55.20
74921;BME280;63483;47.384;8.860;2022-09-24T03:03:21;94273.88;;;11.89;55.15
74921;BME280;63483;47.384;8.860;2022-09-24T03:05:47;94267.03;;;11.88;55.28
74921;BME280;63483;47.384;8.860;2022-09-24T03:08:13;94280.75;;;11.90;55.13
74921;BME280;63483;47.384;8.860;2022-09-24T03:10:38;94280.56;;;11.91;54.96
74921;BME280;63483;47.384;8.860;2022-09-24T03:13:03;94282.00;;;11.94;54.97
74921;BME280;63483;47.384;8.860;2022-09-24T03:15:29;94275.53;;;11.90;54.94
74921;BME280;63483;47.384;8.860;2022-09-24T03:17:54;94264.03;;;11.91;54.91
74921;BME280;63483;47.384;8.860;2022-09-24T03:20:20;94266.66;;;11.91;54.99
74921;BME280;63483;47.384;8.860;2022-09-24T03:22:49;94272.50;;;11.93;55.21
74921;BME280;63483;47.384;8.860;2022-09-24T03:25:16;94269.88;;;11.93;54.90
74921;BME280;63483;47.384;8.860;2022-09-24T03:27:41;94264.63;;;11.93;55.02
74921;BME280;63483;47.384;8.860;2022-09-24T03:30:07;94262.63;;;11.95;55.07
74921;BME280;63483;47.384;8.860;2022-09-24T03:32:51;94263.44;;;11.95;54.99
74921;BME280;63483;47.384;8.860;2022-09-24T03:35:16;94257.38;;;11.95;55.09
74921;BME280;63483;47.384;8.860;2022-09-24T03:37:41;94251.31;;;11.94;55.07
74921;BME280;63483;47.384;8.860;2022-09-24T03:40:07;94245.25;;;11.94;55.04
74921;BME280;63483;47.384;8.860;2022-09-24T03:42:33;94243.63;;;11.93;55.12
74921;BME280;63483;47.384;8.860;2022-09-24T03:44:58;94239.56;;;11.90;55.09
74921;BME280;63483;47.384;8.860;2022-09-24T03:47:24;94240.41;;;11.91;55.14
74921;BME280;63483;47.384;8.860;2022-09-24T03:49:49;94237.59;;;11.92;55.12
74921;BME280;63483;47.384;8.860;2022-09-24T03:52:15;94242.00;;;11.92;55.49
74921;BME280;63483;47.384;8.860;2022-09-24T03:54:41;94249.88;;;11.92;55.05
74921;BME280;63483;47.384;8.860;2022-09-24T03:57:07;94247.88;;;11.94;55.13
74921;BME280;63483;47.384;8.860;2022-09-24T03:59:32;94242.00;;;11.92;55.16
74921;BME280;63483;47.384;8.860;2022-09-24T04:01:57;94237.97;;;11.89;55.20
74921;BME280;63483;47.384;8.860;2022-09-24T04:04:23;94246.66;;;11.90;55.21
74921;BME280;63483;47.384;8.860;2022-09-24T04:06:48;94250.06;;;11.90;55.21
74921;BME280;63483;47.384;8.860;2022-09-24T04:09:14;94249.28;;;11.90;55.17
74921;BME280;63483;47.384;8.860;2022-09-24T04:11:39;94250.06;;;11.90;55.18
74921;BME280;63483;47.384;8.860;2022-09-24T04:14:04;94248.88;;;11.93;55.11
74921;BME280;63483;47.384;8.860;2022-09-24T04:16:30;94244.63;;;11.92;55.04
74921;BME280;63483;47.384;8.860;2022-09-24T04:18:55;94254.31;;;11.91;55.07
74921;BME280;63483;47.384;8.860;2022-09-24T04:21:20;94252.50;;;11.92;55.29
74921;BME280;63483;47.384;8.860;2022-09-24T04:23:46;94256.16;;;11.91;55.09
74921;BME280;63483;47.384;8.860;2022-09-24T04:26:11;94257.75;;;11.92;55.20
74921;BME280;63483;47.384;8.860;2022-09-24T04:28:36;94256.56;;;11.94;54.85
74921;BME280;63483;47.384;8.860;2022-09-24T04:31:02;94250.50;;;11.94;55.13
74921;BME280;63483;47.384;8.860;2022-09-24T04:33:28;94250.50;;;11.94;55.08
74921;BME280;63483;47.384;8.860;2022-09-24T04:35:53;94254.13;;;11.93;55.09
74921;BME280;63483;47.384;8.860;2022-09-24T04:38:18;94258.56;;;11.92;55.11
74921;BME280;63483;47.384;8.860;2022-09-24T04:40:45;94260.56;;;11.90;55.17
74921;BME280;63483;47.384;8.860;2022-09-24T04:43:11;94261.41;;;11.91;55.12
74921;BME280;63483;47.384;8.860;2022-09-24T04:45:37;94266.66;;;11.91;55.28
74921;BME280;63483;47.384;8.860;2022-09-24T04:48:03;94271.91;;;11.91;55.16
74921;BME280;63483;47.384;8.860;2022-09-24T04:50:29;94274.53;;;11.91;54.99
74921;BME280;63483;47.384;8.860;2022-09-24T04:52:58;94268.25;;;11.92;55.01
74921;BME280;63483;47.384;8.860;2022-09-24T04:55:23;94271.06;;;11.90;54.76
74921;BME280;63483;47.384;8.860;2022-09-24T04:57:50;94286.81;;;11.90;54.95
74921;BME280;63483;47.384;8.860;2022-09-24T05:00:17;94286.00;;;11.90;54.97
74921;BME280;63483;47.384;8.860;2022-09-24T05:02:44;94286.00;;;11.90;55.22
74921;BME280;63483;47.384;8.860;2022-09-24T05:05:10;94288.84;;;11.88;54.99
74921;BME280;63483;47.384;8.860;2022-09-24T05:07:36;94282.59;;;11.89;55.34
74921;BME280;63483;47.384;8.860;2022-09-24T05:10:02;94286.22;;;11.88;55.22
74921;BME280;63483;47.384;8.860;2022-09-24T05:12:27;94280.53;;;11.85;55.17
74921;BME280;63483;47.384;8.860;2022-09-24T05:14:52;94285.63;;;11.86;55.47
74921;BME280;63483;47.384;8.860;2022-09-24T05:17:18;94289.03;;;11.87;55.21
74921;BME280;63483;47.384;8.860;2022-09-24T05:19:43;94292.66;;;11.86;55.17
74921;BME280;63483;47.384;8.860;2022-09-24T05:22:09;94291.66;;;11.87;55.23
74921;BME280;63483;47.384;8.860;2022-09-24T05:24:34;94294.44;;;11.85;55.13
74921;BME280;63483;47.384;8.860;2022-09-24T05:26:59;94290.03;;;11.86;55.21
74921;BME280;63483;47.384;8.860;2022-09-24T05:29:43;94296.09;;;11.86;55.68
74921;BME280;63483;47.384;8.860;2022-09-24T05:32:11;94294.88;;;11.89;55.29
74921;BME280;63483;47.384;8.860;2022-09-24T05:34:37;94303.59;;;11.89;55.27
74921;BME280;63483;47.384;8.860;2022-09-24T05:37:03;94296.72;;;11.88;55.36
74921;BME280;63483;47.384;8.860;2022-09-24T05:39:29;94290.84;;;11.86;55.18
74921;BME280;63483;47.384;8.860;2022-09-24T05:41:55;94302.75;;;11.89;55.28
74921;BME280;63483;47.384;8.860;2022-09-24T05:44:21;94302.75;;;11.89;55.11
74921;BME280;63483;47.384;8.860;2022-09-24T05:46:48;94295.28;;;11.86;55.33
74921;BME280;63483;47.384;8.860;2022-09-24T05:49:13;94301.72;;;11.83;54.98
74921;BME280;63483;47.384;8.860;2022-09-24T05:51:38;94306.13;;;11.83;55.17
74921;BME280;63483;47.384;8.860;2022-09-24T05:54:04;94306.34;;;11.81;55.00
74921;BME280;63483;47.384;8.860;2022-09-24T05:56:29;94311.38;;;11.83;55.08
74921;BME280;63483;47.384;8.860;2022-09-24T05:58:55;94309.78;;;11.82;55.00
74921;BME280;63483;47.384;8.860;2022-09-24T06:01:20;94315.63;;;11.84;54.90
74921;BME280;63483;47.384;8.860;2022-09-24T06:03:45;94314.66;;;11.85;54.98
74921;BME280;63483;47.384;8.860;2022-09-24T06:06:11;94313.00;;;11.84;54.93
74921;BME280;63483;47.384;8.860;2022-09-24T06:08:36;94318.25;;;11.84;54.71
74921;BME280;63483;47.384;8.860;2022-09-24T06:11:04;94308.56;;;11.84;55.04
74921;BME280;63483;47.384;8.860;2022-09-24T06:13:30;94311.19;;;11.84;54.82
74921;BME280;63483;47.384;8.860;2022-09-24T06:16:05;94315.63;;;11.84;54.85
74921;BME280;63483;47.384;8.860;2022-09-24T06:18:36;94309.78;;;11.82;55.12
74921;BME280;63483;47.384;8.860;2022-09-24T06:21:09;94308.75;;;11.83;54.93
74921;BME280;63483;47.384;8.860;2022-09-24T06:23:36;94311.59;;;11.81;54.95
74921;BME280;63483;47.384;8.860;2022-09-24T06:26:03;94310.38;;;11.84;54.88
74921;BME280;63483;47.384;8.860;2022-09-24T06:28:29;94315.84;;;11.82;54.96
74921;BME280;63483;47.384;8.860;2022-09-24T06:30:54;94315.03;;;11.82;54.94
74921;BME280;63483;47.384;8.860;2022-09-24T06:33:20;94319.25;;;11.83;54.81
74921;BME280;63483;47.384;8.860;2022-09-24T06:35:46;94321.88;;;11.83;54.86
74921;BME280;63483;47.384;8.860;2022-09-24T06:38:14;94318.25;;;11.84;54.87
74921;BME280;63483;47.384;8.860;2022-09-24T06:40:41;94321.88;;;11.83;54.67
74921;BME280;63483;47.384;8.860;2022-09-24T06:43:09;94313.00;;;11.84;54.67
74921;BME280;63483;47.384;8.860;2022-09-24T06:45:35;94314.00;;;11.83;54.54
74921;BME280;63483;47.384;8.860;2022-09-24T06:48:01;94310.59;;;11.82;54.23
74921;BME280;63483;47.384;8.860;2022-09-24T06:50:29;94315.84;;;11.82;54.40
74921;BME280;63483;47.384;8.860;2022-09-24T06:52:56;94321.28;;;11.81;54.59
74921;BME280;63483;47.384;8.860;2022-09-24T06:55:22;94320.28;;;11.82;54.39
74921;BME280;63483;47.384;8.860;2022-09-24T06:57:47;94313.41;;;11.81;54.40
74921;BME280;63483;47.384;8.860;2022-09-24T07:00:13;94320.09;;;11.83;54.42
74921;BME280;63483;47.384;8.860;2022-09-24T07:02:39;94325.13;;;11.85;54.45
74921;BME280;63483;47.384;8.860;2022-09-24T07:05:05;94321.53;;;11.86;54.30
74921;BME280;63483;47.384;8.860;2022-09-24T07:07:31;94317.91;;;11.87;54.26
74921;BME280;63483;47.384;8.860;2022-09-24T07:10:06;94321.53;;;11.86;54.43
74921;BME280;63483;47.384;8.860;2022-09-24T07:12:33;94320.31;;;11.88;54.17
74921;BME280;63483;47.384;8.860;2022-09-24T07:14:59;94317.50;;;11.90;54.33
74921;BME280;63483;47.384;8.860;2022-09-24T07:17:26;94317.09;;;11.93;54.36
74921;BME280;63483;47.384;8.860;2022-09-24T07:19:52;94324.00;;;11.94;54.48
74921;BME280;63483;47.384;8.860;2022-09-24T07:22:18;94324.78;;;11.94;54.42
74921;BME280;63483;47.384;8.860;2022-09-24T07:24:44;94330.22;;;11.93;54.21
74921;BME280;63483;47.384;8.860;2022-09-24T07:27:10;94332.25;;;11.91;54.54
74921;BME280;63483;47.384;8.860;2022-09-24T07:29:36;94325.97;;;11.92;54.51
74921;BME280;63483;47.384;8.860;2022-09-24T07:32:02;94328.44;;;11.93;54.48
74921;BME280;63483;47.384;8.860;2022-09-24T07:34:28;94334.47;;;11.94;54.63
74921;BME280;63483;47.384;8.860;2022-09-24T07:36:54;94332.47;;;11.96;54.72
74921;BME280;63483;47.384;8.860;2022-09-24T07:39:21;94330.03;;;11.94;54.72
74921;BME280;63483;47.384;8.860;2022-09-24T07:41:47;94327.59;;;11.93;54.64
74921;BME280;63483;47.384;8.860;2022-09-24T07:44:12;94332.84;;;11.93;54.68
74921;BME280;63483;47.384;8.860;2022-09-24T07:46:37;94330.22;;;11.93;54.76
74921;BME280;63483;47.384;8.860;2022-09-24T07:49:03;94338.94;;;11.93;54.83
74921;BME280;63483;47.384;8.860;2022-09-24T07:51:28;94332.84;;;11.93;54.83
74921;BME280;63483;47.384;8.860;2022-09-24T07:53:54;94338.09;;;11.93;54.63
74921;BME280;63483;47.384;8.860;2022-09-24T07:56:21;94334.47;;;11.94;54.70
74921;BME280;63483;47.384;8.860;2022-09-24T07:58:51;94342.75;;;11.91;54.38
74921;BME280;63483;47.384;8.860;2022-09-24T08:01:17;94334.44;;;11.87;54.56
74921;BME280;63483;47.384;8.860;2022-09-24T08:03:43;94337.25;;;11.86;54.66
74921;BME280;63483;47.384;8.860;2022-09-24T08:06:10;94339.88;;;11.86;54.47
74921;BME280;63483;47.384;8.860;2022-09-24T08:08:35;94344.13;;;11.87;54.41
74921;BME280;63483;47.384;8.860;2022-09-24T08:11:04;94351.03;;;11.88;54.49
74921;BME280;63483;47.384;8.860;2022-09-24T08:13:30;94356.25;;;11.88;54.60
74921;BME280;63483;47.384;8.860;2022-09-24T08:15:56;94349.38;;;11.87;54.55
74921;BME280;63483;47.384;8.860;2022-09-24T08:18:23;94350.56;;;11.84;54.44
74921;BME280;63483;47.384;8.860;2022-09-24T08:20:49;94354.00;;;11.85;54.57
74921;BME280;63483;47.384;8.860;2022-09-24T08:23:14;94347.75;;;11.86;54.48
74921;BME280;63483;47.384;8.860;2022-09-24T08:25:40;94356.25;;;11.88;54.69
74921;BME280;63483;47.384;8.860;2022-09-24T08:28:06;94346.56;;;11.88;54.84
74921;BME280;63483;47.384;8.860;2022-09-24T08:30:33;94340.94;;;11.91;54.87
74921;BME280;63483;47.384;8.860;2022-09-24T08:32:59;94341.72;;;11.92;54.81
74921;BME280;63483;47.384;8.860;2022-09-24T08:35:25;94340.13;;;11.91;54.79
74921;BME280;63483;47.384;8.860;2022-09-24T08:37:54;94337.69;;;11.89;54.69
74921;BME280;63483;47.384;8.860;2022-09-24T08:40:22;94331.63;;;11.89;54.60
74921;BME280;63483;47.384;8.860;2022-09-24T08:42:50;94334.03;;;11.90;54.50
74921;BME280;63483;47.384;8.860;2022-09-24T08:45:18;94331.84;;;11.94;54.35
74921;BME280;63483;47.384;8.860;2022-09-24T08:48:13;94335.91;;;11.97;54.64
74921;BME280;63483;47.384;8.860;2022-09-24T08:50:51;94339.34;;;11.97;54.41
74921;BME280;63483;47.384;8.860;2022-09-24T08:53:29;94338.56;;;12.03;54.91
74921;BME280;63483;47.384;8.860;2022-09-24T08:55:58;94329.28;;;12.07;54.94
74921;BME280;63483;47.384;8.860;2022-09-24T09:09:11;94347.91;;;12.26;54.78
74921;BME280;63483;47.384;8.860;2022-09-24T09:11:41;94345.28;;;12.26;54.65
74921;BME280;63483;47.384;8.860;2022-09-24T09:14:20;94342.28;;;12.29;55.00
74921;BME280;63483;47.384;8.860;2022-09-24T09:17:00;94345.50;;;12.31;54.78
74921;BME280;63483;47.384;8.860;2022-09-24T09:19:32;94349.38;;;12.35;54.18
74921;BME280;63483;47.384;8.860;2022-09-24T09:22:04;94349.78;;;12.39;53.67
74921;BME280;63483;47.384;8.860;2022-09-24T09:24:42;94347.34;;;12.37;53.16
74921;BME280;63483;47.384;8.860;2022-09-24T09:27:11;94345.31;;;12.39;52.98
74921;BME280;63483;47.384;8.860;2022-09-24T09:29:49;94343.50;;;12.33;53.64
74921;BME280;63483;47.384;8.860;2022-09-24T09:35:05;94344.72;;;12.37;54.16
74921;BME280;63483;47.384;8.860;2022-09-24T09:42:43;94345.75;;;12.43;54.58
74921;BME280;63483;47.384;8.860;2022-09-24T09:45:43;94345.16;;;12.47;53.86
74921;BME280;63483;47.384;8.860;2022-09-24T09:48:12;94334.63;;;12.47;54.08
74921;BME280;63483;47.384;8.860;2022-09-24T09:50:47;94344.75;;;12.51;53.98
74921;BME280;63483;47.384;8.860;2022-09-24T09:53:27;94338.88;;;12.55;53.69
74921;BME280;63483;47.384;8.860;2022-09-24T09:55:56;94340.31;;;12.58;53.65
74921;BME280;63483;47.384;8.860;2022-09-24T09:58:24;94341.53;;;12.62;53.22
74921;BME280;63483;47.384;8.860;2022-09-24T10:00:51;94340.72;;;12.61;53.24
74921;BME280;63483;47.384;8.860;2022-09-24T10:06:28;94341.94;;;12.59;52.71
74921;BME280;63483;47.384;8.860;2022-09-24T10:09:16;94340.31;;;12.58;53.35
74921;BME280;63483;47.384;8.860;2022-09-24T10:11:44;94348.78;;;12.60;53.38
74921;BME280;63483;47.384;8.860;2022-09-24T10:14:11;94341.53;;;12.62;53.36
74921;BME280;63483;47.384;8.860;2022-09-24T10:16:39;94343.97;;;12.63;53.37
74921;BME280;63483;47.384;8.860;2022-09-24T10:19:23;94345.78;;;12.63;53.61
74921;BME280;63483;47.384;8.860;2022-09-24T10:21:50;94352.84;;;12.62;53.42
74921;BME280;63483;47.384;8.860;2022-09-24T10:24:19;94341.16;;;12.65;53.21
74921;BME280;63483;47.384;8.860;2022-09-24T10:26:46;94348.03;;;12.66;53.61
74921;BME280;63483;47.384;8.860;2022-09-24T10:29:15;94347.63;;;12.69;53.57
74921;BME280;63483;47.384;8.860;2022-09-24T10:32:01;94348.41;;;12.70;54.21
74921;BME280;63483;47.384;8.860;2022-09-24T10:34:27;94342.97;;;12.71;53.57
74921;BME280;63483;47.384;8.860;2022-09-24T10:37:11;94343.56;;;12.73;53.54
74921;BME280;63483;47.384;8.860;2022-09-24T10:39:37;94343.19;;;12.76;53.25
74921;BME280;63483;47.384;8.860;2022-09-24T10:42:03;94341.19;;;12.78;53.43
74921;BME280;63483;47.384;8.860;2022-09-24T10:44:34;94346.84;;;12.82;53.72
74921;BME280;63483;47.384;8.860;2022-09-24T10:58:06;94346.84;;;12.89;53.41
74921;BME280;63483;47.384;8.860;2022-09-24T11:01:39;94342.00;;;12.86;53.11
74921;BME280;63483;47.384;8.860;2022-09-24T11:03:52;94337.34;;;12.88;53.14
74921;BME280;63483;47.384;8.860;2022-09-24T11:14:46;94338.38;;;12.93;53.41
74921;BME280;63483;47.384;8.860;2022-09-24T11:17:31;94331.06;;;12.95;53.61
74921;BME280;63483;47.384;8.860;2022-09-24T11:25:20;94332.31;;;13.06;52.90
74921;BME280;63483;47.384;8.860;2022-09-24T11:30:28;94332.72;;;13.03;52.84
74921;BME280;63483;47.384;8.860;2022-09-24T11:36:12;94322.78;;;13.05;52.64
74921;BME280;63483;47.384;8.860;2022-09-24T11:52:07;94304.97;;;13.27;52.69
74921;BME280;63483;47.384;8.860;2022-09-24T11:57:27;94301.94;;;13.30;52.63
74921;BME280;63483;47.384;8.860;2022-09-24T12:00:04;94300.72;;;13.33;52.81
74921;BME280;63483;47.384;8.860;2022-09-24T12:02:38;94295.47;;;13.33;52.33
74921;BME280;63483;47.384;8.860;2022-09-24T12:10:34;94296.66;;;13.37;51.77
74921;BME280;63483;47.384;8.860;2022-09-24T12:13:27;94293.63;;;13.33;52.32
74921;BME280;63483;47.384;8.860;2022-09-24T12:16:05;94286.16;;;13.37;52.54
74921;BME280;63483;47.384;8.860;2022-09-24T12:18:57;94288.16;;;13.42;52.64
74921;BME280;63483;47.384;8.860;2022-09-24T12:21:30;94282.47;;;13.45;52.37
74921;BME280;63483;47.384;8.860;2022-09-24T12:24:10;94281.25;;;13.47;51.56
74921;BME280;63483;47.384;8.860;2022-09-24T12:26:39;94277.19;;;13.51;52.00
74921;BME280;63483;47.384;8.860;2022-09-24T12:32:47;94276.38;;;13.51;51.11
74921;BME280;63483;47.384;8.860;2022-09-24T12:38:40;94279.19;;;13.56;51.84
74921;BME280;63483;47.384;8.860;2022-09-24T12:46:38;94266.25;;;13.61;52.09
74921;BME280;63483;47.384;8.860;2022-09-24T12:49:32;94271.88;;;13.65;51.43
74921;BME280;63483;47.384;8.860;2022-09-24T12:52:14;94260.97;;;13.68;51.09
74921;BME280;63483;47.384;8.860;2022-09-24T12:54:41;94268.25;;;13.73;50.95
74921;BME280;63483;47.384;8.860;2022-09-24T13:02:15;94255.66;;;13.81;50.38
74921;BME280;63483;47.384;8.860;2022-09-24T13:04:50;94257.53;;;13.74;50.63
74921;BME280;63483;47.384;8.860;2022-09-24T13:07:38;94260.38;;;13.73;49.89
74921;BME280;63483;47.384;8.860;2022-09-24T13:10:31;94259.53;;;13.72;50.66
74921;BME280;63483;47.384;8.860;2022-09-24T13:12:58;94255.50;;;13.69;50.75
74921;BME280;63483;47.384;8.860;2022-09-24T13:15:38;94258.94;;;13.70;51.06
74921;BME280;63483;47.384;8.860;2022-09-24T13:20:34;94256.31;;;13.70;50.71
74921;BME280;63483;47.384;8.860;2022-09-24T13:23:28;94264.22;;;13.70;51.01
74921;BME280;63483;47.384;8.860;2022-09-24T13:25:56;94256.31;;;13.70;51.35
74921;BME280;63483;47.384;8.860;2022-09-24T13:28:25;94264.00;;;13.72;51.48
74921;BME280;63483;47.384;8.860;2022-09-24T13:31:01;94255.69;;;13.75;51.54
74921;BME280;63483;47.384;8.860;2022-09-24T13:33:38;94255.91;;;13.73;50.84
74921;BME280;63483;47.384;8.860;2022-09-24T13:36:12;94253.47;;;13.72;50.69
74921;BME280;63483;47.384;8.860;2022-09-24T13:44:34;94238.91;;;13.69;51.19
74921;BME280;63483;47.384;8.860;2022-09-24T13:47:09;94246.81;;;13.69;51.93
74921;BME280;63483;47.384;8.860;2022-09-24T13:49:40;94243.16;;;13.70;51.04
74921;BME280;63483;47.384;8.860;2022-09-24T13:54:51;94250.84;;;13.72;51.52
74921;BME280;63483;47.384;8.860;2022-09-24T13:57:24;94251.22;;;13.75;51.61
74921;BME280;63483;47.384;8.860;2022-09-24T14:00:16;94247.59;;;13.76;51.68
74921;BME280;63483;47.384;8.860;2022-09-24T14:05:38;94245.53;;;13.78;50.80
74921;BME280;63483;47.384;8.860;2022-09-24T14:08:11;94241.47;;;13.82;50.42
74921;BME280;63483;47.384;8.860;2022-09-24T14:10:37;94240.69;;;13.82;50.57
74921;BME280;63483;47.384;8.860;2022-09-24T14:13:18;94247.16;;;13.86;51.06
74921;BME280;63483;47.384;8.860;2022-09-24T14:16:09;94250.00;;;13.84;50.69
74921;BME280;63483;47.384;8.860;2022-09-24T14:18:35;94242.28;;;13.83;50.57
74921;BME280;63483;47.384;8.860;2022-09-24T14:21:33;94250.38;;;13.81;50.21
74921;BME280;63483;47.384;8.860;2022-09-24T14:24:07;94241.47;;;13.82;50.49
74921;BME280;63483;47.384;8.860;2022-09-24T14:26:53;94242.09;;;13.84;51.07
74921;BME280;63483;47.384;8.860;2022-09-24T14:29:49;94239.28;;;13.79;50.87
74921;BME280;63483;47.384;8.860;2022-09-24T14:32:34;94243.75;;;13.72;51.16
74921;BME280;63483;47.384;8.860;2022-09-24T14:35:16;94232.63;;;13.70;51.24
74921;BME280;63483;47.384;8.860;2022-09-24T14:38:03;94240.75;;;13.68;51.32
74921;BME280;63483;47.384;8.860;2022-09-24T14:46:23;94227.41;;;13.57;51.47
74921;BME280;63483;47.384;8.860;2022-09-24T14:48:49;94223.78;;;13.51;51.58
74921;BME280;63483;47.384;8.860;2022-09-24T14:51:23;94224.56;;;13.51;51.76
74921;BME280;63483;47.384;8.860;2022-09-24T14:54:41;94216.31;;;13.48;51.97
74921;BME280;63483;47.384;8.860;2022-09-24T14:56:42;94210.22;;;13.47;52.11
74921;BME280;63483;47.384;8.860;2022-09-24T14:59:13;94207.19;;;13.50;52.10
74921;BME280;63483;47.384;8.860;2022-09-24T15:01:39;94201.31;;;13.48;52.11
74921;BME280;63483;47.384;8.860;2022-09-24T15:04:13;94196.88;;;13.49;51.75
74921;BME280;63483;47.384;8.860;2022-09-24T15:06:44;94196.47;;;13.45;51.70
74921;BME280;63483;47.384;8.860;2022-09-24T15:09:26;94193.63;;;13.47;51.89
74921;BME280;63483;47.384;8.860;2022-09-24T15:11:53;94192.22;;;13.44;51.72
74921;BME280;63483;47.384;8.860;2022-09-24T15:14:20;94186.97;;;13.44;51.54
74921;BME280;63483;47.384;8.860;2022-09-24T15:16:52;94195.88;;;13.43;51.71
74921;BME280;63483;47.384;8.860;2022-09-24T15:19:20;94198.50;;;13.43;51.48
74921;BME280;63483;47.384;8.860;2022-09-24T15:21:47;94200.31;;;13.43;51.73
74921;BME280;63483;47.384;8.860;2022-09-24T15:24:14;94203.56;;;13.38;52.08
74921;BME280;63483;47.384;8.860;2022-09-24T15:26:42;94200.94;;;13.38;51.99
74921;BME280;63483;47.384;8.860;2022-09-24T15:29:10;94209.88;;;13.37;52.01